Time;durP1;ratioP1;P1;durP2;ratioP2;P2;SDS_P1;SDS_P2;PMS_P1;PMS_P2;Temp;Humidity;BMP_temperature;BMP_pressure;BME280_temperature;BME280_humidity;BME280_pressure;Samples;Min_cycle;Max_cycle;Signal;HPM_P1;HPM_P2
2022/03/06 00:00:12;;;;;;;5.00;4.05;;;;;;;6.49;51.64;102214.95;1776014;78;21022;-76
2022/03/06 00:02:40;;;;;;;4.80;4.10;;;;;;;6.49;51.84;102216.23;1781934;79;21021;-77
2022/03/06 00:05:08;;;;;;;4.10;3.70;;;;;;;6.48;51.84;102213.22;1782813;79;21004;-76
2022/03/06 00:07:35;;;;;;;4.58;3.98;;;;;;;6.49;51.63;102218.83;1770661;80;21003;-75
2022/03/06 00:10:03;;;;;;;4.28;3.87;;;;;;;6.48;51.74;102210.64;1751234;81;20993;-75
2022/03/06 00:12:30;;;;;;;4.55;4.05;;;;;;;6.48;51.71;102204.59;1769158;80;21040;-76
2022/03/06 00:14:57;;;;;;;5.10;4.58;;;;;;;6.46;51.71;102207.15;1783557;80;21006;-76
2022/03/06 00:17:24;;;;;;;5.17;4.67;;;;;;;6.45;51.87;102203.25;1747107;80;21552;-76
2022/03/06 00:19:53;;;;;;;5.60;4.40;;;;;;;6.41;52.04;102201.02;1768554;80;21569;-76
2022/03/06 00:22:20;;;;;;;4.17;3.80;;;;;;;6.40;51.98;102196.70;1774808;77;21487;-76
2022/03/06 00:24:47;;;;;;;4.80;4.30;;;;;;;6.39;52.03;102200.53;1764956;79;21031;-76
2022/03/06 00:27:15;;;;;;;5.30;4.75;;;;;;;6.35;52.24;102199.61;1785419;79;21065;-76
2022/03/06 00:29:43;;;;;;;5.22;4.60;;;;;;;6.36;52.33;102200.08;1776918;79;21019;-76
2022/03/06 00:32:11;;;;;;;4.72;4.33;;;;;;;6.35;52.30;102195.73;1783081;79;21066;-75
2022/03/06 00:34:38;;;;;;;4.53;4.12;;;;;;;6.35;52.31;102194.44;1765235;79;21031;-76
2022/03/06 00:37:05;;;;;;;4.95;4.40;;;;;;;6.33;52.33;102194.84;1760871;80;21357;-76
2022/03/06 00:39:33;;;;;;;5.20;4.60;;;;;;;6.30;52.42;102192.21;1768964;79;21034;-76
2022/03/06 00:42:00;;;;;;;5.42;4.60;;;;;;;6.29;52.54;102187.87;1777414;79;21069;-76
2022/03/06 00:44:27;;;;;;;5.25;4.65;;;;;;;6.27;52.65;102189.55;1770843;79;21039;-76
2022/03/06 00:46:54;;;;;;;4.72;4.30;;;;;;;6.26;52.69;102194.29;1772344;80;21090;-76
2022/03/06 00:49:22;;;;;;;7.67;4.70;;;;;;;6.28;52.82;102194.31;1776497;79;21039;-76
2022/03/06 00:51:50;;;;;;;5.30;4.80;;;;;;;6.28;52.90;102187.84;1768452;79;21073;-76
2022/03/06 00:54:17;;;;;;;4.72;4.25;;;;;;;6.28;52.90;102196.48;1779272;78;21503;-76
2022/03/06 00:56:44;;;;;;;5.35;4.85;;;;;;;6.31;52.85;102201.69;1777357;79;21026;-76
2022/03/06 00:59:11;;;;;;;5.30;4.50;;;;;;;6.34;52.84;102200.47;1770569;79;21525;-76
2022/03/06 01:01:39;;;;;;;7.22;5.17;;;;;;;6.37;52.72;102200.51;1758643;80;21026;-76
2022/03/06 01:04:07;;;;;;;6.62;5.37;;;;;;;6.38;52.50;102200.97;1770464;79;21874;-76
2022/03/06 01:06:34;;;;;;;5.30;4.80;;;;;;;6.36;52.52;102200.08;1787846;79;21514;-75
2022/03/06 01:09:01;;;;;;;6.40;5.10;;;;;;;6.33;52.58;102207.76;1779237;79;21591;-75
2022/03/06 01:11:27;;;;;;;6.47;5.03;;;;;;;6.30;52.69;102209.02;1771421;79;21494;-76
2022/03/06 01:13:56;;;;;;;7.20;5.50;;;;;;;6.25;52.81;102203.28;1777939;80;21330;-76
2022/03/06 01:16:24;;;;;;;7.67;6.10;;;;;;;6.20;52.80;102199.31;1781344;79;21022;-76
2022/03/06 01:18:51;;;;;;;5.67;5.08;;;;;;;6.15;53.10;102202.25;1781533;79;21010;-76
2022/03/06 01:21:19;;;;;;;6.03;5.42;;;;;;;6.15;53.39;102206.13;1790044;79;21009;-76
2022/03/06 01:23:46;;;;;;;6.22;5.20;;;;;;;6.12;53.50;102204.76;1776564;79;21031;-76
2022/03/06 01:26:13;;;;;;;7.20;6.08;;;;;;;6.10;53.62;102196.11;1762575;79;21003;-76
2022/03/06 01:28:42;;;;;;;6.60;5.75;;;;;;;6.08;53.84;102200.38;1772510;80;21017;-76
2022/03/06 01:31:09;;;;;;;7.97;5.67;;;;;;;6.06;53.76;102193.47;1772803;78;20991;-75
2022/03/06 01:33:36;;;;;;;6.78;6.05;;;;;;;6.03;53.72;102192.98;1786253;79;20987;-76
2022/03/06 01:36:03;;;;;;;7.22;5.47;;;;;;;6.00;53.98;102190.31;1731122;82;21021;-76
2022/03/06 01:38:31;;;;;;;6.50;5.15;;;;;;;5.98;54.05;102193.29;1737468;81;21136;-76
2022/03/06 01:40:58;;;;;;;5.85;5.10;;;;;;;5.95;54.09;102194.95;1725252;82;21055;-76
2022/03/06 01:43:25;;;;;;;6.30;5.20;;;;;;;5.92;54.18;102198.34;1718891;82;21079;-76
2022/03/06 01:45:54;;;;;;;6.35;5.70;;;;;;;5.92;54.39;102203.92;1709826;82;21049;-78
2022/03/06 01:48:21;;;;;;;6.10;5.50;;;;;;;5.89;54.55;102200.88;1698829;83;21003;-75
2022/03/06 01:50:48;;;;;;;5.78;5.17;;;;;;;5.89;54.56;102203.46;1706168;82;21021;-76
2022/03/06 01:53:15;;;;;;;6.00;5.40;;;;;;;5.88;54.16;102205.58;1715004;82;21043;-76
2022/03/06 01:55:43;;;;;;;5.58;4.97;;;;;;;5.83;54.13;102205.01;1721626;82;21033;-76
2022/03/06 01:58:11;;;;;;;5.85;4.85;;;;;;;5.78;54.16;102202.33;1717053;82;21149;-76
2022/03/06 02:00:44;;;;;;;8.33;5.08;;;;;;;5.74;54.12;102199.23;1733214;81;21133;-76
2022/03/06 02:03:14;;;;;;;5.45;4.90;;;;;;;5.69;54.34;102199.54;1775254;79;21054;-76
2022/03/06 02:05:42;;;;;;;6.03;4.83;;;;;;;5.67;54.50;102201.22;1791535;77;21036;-76
2022/03/06 02:08:09;;;;;;;5.72;4.92;;;;;;;5.66;54.59;102209.82;1795911;79;21049;-76
2022/03/06 02:10:37;;;;;;;6.12;5.00;;;;;;;5.65;54.77;102209.35;1772174;79;21096;-76
2022/03/06 02:13:05;;;;;;;6.15;4.85;;;;;;;5.64;54.91;102210.20;1785821;79;21069;-77
2022/03/06 02:15:32;;;;;;;5.42;4.92;;;;;;;5.65;55.08;102210.64;1761544;80;21096;-75
2022/03/06 02:17:59;;;;;;;5.25;4.75;;;;;;;5.65;55.09;102218.39;1771195;80;20982;-76
2022/03/06 02:20:26;;;;;;;5.72;4.85;;;;;;;5.66;54.97;102214.98;1769522;79;21039;-76
2022/03/06 02:22:55;;;;;;;6.03;5.42;;;;;;;5.65;55.07;102211.52;1774745;80;20948;-76
2022/03/06 02:25:33;;;;;;;6.17;5.58;;;;;;;5.64;55.06;102212.38;1766679;79;20992;-76
2022/03/06 02:28:04;;;;;;;6.40;5.80;;;;;;;5.64;55.22;102208.92;1711292;82;21085;-76
2022/03/06 02:30:33;;;;;;;6.60;5.10;;;;;;;5.64;55.27;102209.80;1731083;82;21034;-76
2022/03/06 02:33:03;;;;;;;6.87;5.55;;;;;;;5.63;55.25;102209.73;1721900;82;21084;-76
2022/03/06 02:35:31;;;;;;;6.30;5.70;;;;;;;5.59;55.28;102207.94;1736512;82;21030;-76
2022/03/06 02:37:58;;;;;;;6.40;5.80;;;;;;;5.56;55.27;102213.05;1727625;81;21537;-76
2022/03/06 02:40:26;;;;;;;6.60;5.92;;;;;;;5.55;55.28;102215.16;1715485;82;21568;-77
2022/03/06 02:42:53;;;;;;;6.53;5.83;;;;;;;5.53;55.59;102214.26;1726051;82;21186;-76
2022/03/06 02:45:24;;;;;;;7.25;6.50;;;;;;;5.53;55.76;102218.12;1715246;82;21497;-76
2022/03/06 02:47:53;;;;;;;5.97;5.37;;;;;;;5.54;55.65;102222.47;1727459;82;21553;-76
2022/03/06 02:50:27;;;;;;;7.30;6.40;;;;;;;5.52;55.47;102227.58;1720187;80;21005;-76
2022/03/06 02:52:54;;;;;;;6.97;5.80;;;;;;;5.51;55.45;102227.55;1714710;82;21037;-76
2022/03/06 02:55:21;;;;;;;7.20;5.95;;;;;;;5.50;55.57;102225.38;1727470;82;21752;-76
2022/03/06 02:57:49;;;;;;;6.50;5.80;;;;;;;5.51;55.57;102227.55;1721350;82;21582;-77
2022/03/06 03:00:18;;;;;;;7.22;6.17;;;;;;;5.52;55.55;102227.58;1729663;82;21492;-77
2022/03/06 03:02:45;;;;;;;6.37;5.67;;;;;;;5.53;55.44;102229.75;1722155;82;21015;-76
2022/03/06 03:05:13;;;;;;;6.25;5.65;;;;;;;5.52;55.56;102234.48;1696471;83;21009;-76
2022/03/06 03:07:41;;;;;;;6.47;5.65;;;;;;;5.52;55.32;102233.19;1718341;82;21018;-76
2022/03/06 03:10:09;;;;;;;6.90;6.05;;;;;;;5.51;55.37;102237.88;1704583;82;21026;-76
2022/03/06 03:12:38;;;;;;;6.25;5.65;;;;;;;5.49;55.31;102231.40;1718608;82;21633;-76
2022/03/06 03:15:06;;;;;;;7.03;6.33;;;;;;;5.48;55.29;102232.22;1710893;83;21541;-76
2022/03/06 03:17:33;;;;;;;6.97;6.28;;;;;;;5.47;55.39;102236.06;1727233;82;21062;-76
2022/03/06 03:20:01;;;;;;;6.45;5.85;;;;;;;5.46;55.58;102242.09;1734425;82;21046;-76
2022/03/06 03:22:29;;;;;;;7.12;6.42;;;;;;;5.46;55.70;102248.54;1717535;82;21548;-76
2022/03/06 03:24:56;;;;;;;7.33;6.55;;;;;;;5.47;55.68;102254.14;1723223;82;21054;-76
2022/03/06 03:27:23;;;;;;;6.87;6.17;;;;;;;5.49;55.71;102258.92;1699025;83;21026;-76
2022/03/06 03:29:50;;;;;;;7.62;6.58;;;;;;;5.51;55.70;102255.95;1704050;83;21005;-76
2022/03/06 03:32:17;;;;;;;6.92;5.83;;;;;;;5.55;55.57;102253.89;1694733;83;21755;-76
2022/03/06 03:34:44;;;;;;;7.80;6.97;;;;;;;5.56;55.48;102251.78;1698263;83;21030;-76
2022/03/06 03:37:12;;;;;;;7.40;6.70;;;;;;;5.57;55.51;102254.80;1698622;83;21032;-76
2022/03/06 03:39:39;;;;;;;7.10;6.40;;;;;;;5.57;55.47;102252.22;1688514;83;21004;-76
2022/03/06 03:42:06;;;;;;;8.35;6.90;;;;;;;5.60;55.37;102256.17;1688159;83;20978;-77
2022/03/06 03:44:33;;;;;;;8.35;6.97;;;;;;;5.58;55.25;102255.27;1742749;78;21058;-76
2022/03/06 03:47:00;;;;;;;7.20;6.35;;;;;;;5.57;55.32;102258.26;1781869;79;21061;-76
2022/03/06 03:49:28;;;;;;;7.97;7.17;;;;;;;5.57;55.21;102263.83;1799621;78;21094;-76
2022/03/06 03:51:55;;;;;;;7.65;6.92;;;;;;;5.57;55.18;102262.13;1798396;79;21002;-77
2022/03/06 03:54:22;;;;;;;7.50;6.70;;;;;;;5.59;55.16;102259.57;1762929;79;20990;-76
2022/03/06 03:56:49;;;;;;;7.45;6.75;;;;;;;5.62;55.01;102268.70;1768386;80;21084;-76
2022/03/06 03:59:16;;;;;;;8.30;6.65;;;;;;;5.61;54.90;102260.48;1776576;78;20990;-77
2022/03/06 04:01:44;;;;;;;7.35;6.65;;;;;;;5.59;54.97;102272.08;1770655;80;21052;-76
2022/03/06 04:04:11;;;;;;;7.25;6.55;;;;;;;5.58;54.90;102270.75;1770243;79;21482;-76
2022/03/06 04:06:39;;;;;;;8.08;6.80;;;;;;;5.56;54.85;102272.44;1764117;80;21507;-76
2022/03/06 04:09:06;;;;;;;9.75;7.40;;;;;;;5.55;54.94;102282.29;1767109;80;21041;-76
2022/03/06 04:11:33;;;;;;;7.37;6.67;;;;;;;5.54;54.99;102284.44;1792299;79;21058;-76
2022/03/06 04:14:00;;;;;;;8.08;7.28;;;;;;;5.50;54.96;102283.47;1770508;79;20985;-76
2022/03/06 04:16:27;;;;;;;7.17;6.45;;;;;;;5.50;55.07;102282.62;1776457;79;21042;-76
2022/03/06 04:18:54;;;;;;;8.20;7.08;;;;;;;5.51;55.03;102286.94;1787376;79;21078;-76
2022/03/06 04:21:22;;;;;;;9.38;7.20;;;;;;;5.50;54.96;102292.95;1784999;79;21356;-76
2022/03/06 04:23:49;;;;;;;7.97;6.97;;;;;;;5.48;55.04;102294.63;1786908;79;21006;-76
2022/03/06 04:26:16;;;;;;;8.85;7.12;;;;;;;5.45;55.07;102297.12;1781726;79;21080;-76
2022/03/06 04:28:43;;;;;;;8.18;7.30;;;;;;;5.42;55.10;102298.36;1777613;80;21048;-76
2022/03/06 04:31:10;;;;;;;8.70;7.58;;;;;;;5.39;55.25;102302.14;1778170;79;21010;-76
2022/03/06 04:33:37;;;;;;;8.18;7.35;;;;;;;5.35;55.36;102299.91;1780485;79;21474;-77
2022/03/06 04:36:05;;;;;;;9.13;8.23;;;;;;;5.34;55.35;102302.43;1759795;80;21581;-76
2022/03/06 04:38:34;;;;;;;8.95;7.25;;;;;;;5.32;55.44;102306.28;1768484;80;21055;-76
2022/03/06 04:41:01;;;;;;;8.05;7.08;;;;;;;5.33;55.44;102300.70;1778706;79;21013;-76
2022/03/06 04:43:29;;;;;;;8.00;7.20;;;;;;;5.30;55.38;102302.78;1761889;79;21475;-76
2022/03/06 04:45:56;;;;;;;8.40;7.58;;;;;;;5.28;55.46;102310.03;1785408;78;21030;-76
2022/03/06 04:48:23;;;;;;;9.33;7.40;;;;;;;5.26;55.68;102315.57;1772663;79;21089;-75
2022/03/06 04:50:50;;;;;;;8.28;7.25;;;;;;;5.27;55.78;102317.33;1791441;79;20995;-77
2022/03/06 04:53:17;;;;;;;7.87;6.95;;;;;;;5.28;55.86;102312.61;1787865;79;21066;-76
2022/03/06 04:55:44;;;;;;;9.85;8.03;;;;;;;5.30;55.94;102308.36;1772292;79;21002;-77
2022/03/06 04:58:11;;;;;;;8.75;7.85;;;;;;;5.32;55.92;102315.31;1785335;79;20999;-76
2022/03/06 05:00:38;;;;;;;9.80;7.62;;;;;;;5.34;56.01;102317.92;1774805;80;20968;-76
2022/03/06 05:03:06;;;;;;;8.25;7.12;;;;;;;5.37;55.97;102318.01;1775715;79;21491;-76
2022/03/06 05:05:33;;;;;;;8.43;7.17;;;;;;;5.39;55.88;102316.34;1767296;79;21022;-76
2022/03/06 05:08:00;;;;;;;8.48;7.28;;;;;;;5.41;55.82;102317.24;1784038;79;21026;-76
2022/03/06 05:10:27;;;;;;;7.53;6.40;;;;;;;5.39;55.74;102320.20;1788233;79;21078;-76
2022/03/06 05:12:55;;;;;;;8.00;6.83;;;;;;;5.38;55.73;102326.22;1783464;79;21081;-76
2022/03/06 05:15:22;;;;;;;8.55;7.28;;;;;;;5.35;55.70;102333.88;1777371;79;21026;-76
2022/03/06 05:17:49;;;;;;;8.95;6.78;;;;;;;5.32;55.73;102337.66;1767147;80;21011;-76
2022/03/06 05:20:16;;;;;;;7.83;7.03;;;;;;;5.26;55.73;102332.34;1763889;79;20987;-76
2022/03/06 05:22:43;;;;;;;9.63;7.75;;;;;;;5.24;55.86;102330.14;1783325;79;21003;-76
2022/03/06 05:25:11;;;;;;;8.55;6.58;;;;;;;5.20;56.09;102338.64;1781264;79;21002;-76
2022/03/06 05:27:38;;;;;;;8.40;7.15;;;;;;;5.18;56.12;102341.61;1772175;80;21002;-76
2022/03/06 05:30:08;;;;;;;7.90;7.10;;;;;;;5.17;56.14;102337.30;1782554;79;20964;-76
2022/03/06 05:32:35;;;;;;;8.15;7.17;;;;;;;5.16;56.12;102339.41;1761134;80;21081;-76
2022/03/06 05:35:02;;;;;;;7.47;6.65;;;;;;;5.15;56.05;102337.67;1764269;80;20978;-76
2022/03/06 05:37:29;;;;;;;8.75;6.62;;;;;;;5.13;56.16;102334.19;1761062;80;21058;-76
2022/03/06 05:39:57;;;;;;;12.53;7.75;;;;;;;5.15;56.19;102342.84;1786693;79;21066;-77
2022/03/06 05:42:24;;;;;;;9.20;7.40;;;;;;;5.14;56.24;102341.08;1777035;80;20947;-77
2022/03/06 05:44:51;;;;;;;9.78;7.28;;;;;;;5.16;56.25;102345.86;1773752;80;21082;-76
2022/03/06 05:47:18;;;;;;;8.90;7.28;;;;;;;5.17;56.40;102346.33;1777062;79;21018;-77
2022/03/06 05:49:45;;;;;;;9.43;7.42;;;;;;;5.21;56.29;102342.98;1759710;80;21037;-76
2022/03/06 05:52:12;;;;;;;8.28;7.15;;;;;;;5.22;56.31;102340.44;1770536;80;21038;-76
2022/03/06 05:54:41;;;;;;;7.95;6.95;;;;;;;5.25;56.35;102344.41;1751975;79;21051;-76
2022/03/06 05:57:08;;;;;;;9.48;7.00;;;;;;;5.28;56.29;102344.87;1767649;79;21086;-76
2022/03/06 05:59:35;;;;;;;9.33;6.72;;;;;;;5.30;56.30;102342.79;1778429;79;21832;-76
2022/03/06 06:02:02;;;;;;;7.65;6.87;;;;;;;5.33;56.38;102340.30;1765912;79;21029;-76
2022/03/06 06:04:30;;;;;;;8.23;7.12;;;;;;;5.36;56.13;102339.48;1752390;80;21510;-77
2022/03/06 06:06:57;;;;;;;8.90;7.53;;;;;;;5.38;56.20;102345.14;1781520;79;21511;-77
2022/03/06 06:09:24;;;;;;;11.53;6.55;;;;;;;5.42;56.14;102342.23;1770550;81;21499;-76
2022/03/06 06:11:51;;;;;;;8.38;7.58;;;;;;;5.47;56.20;102336.75;1761120;81;21526;-77
2022/03/06 06:14:18;;;;;;;7.62;6.87;;;;;;;5.54;56.30;102342.08;1725088;82;21511;-76
2022/03/06 06:16:47;;;;;;;8.88;7.87;;;;;;;5.68;56.27;102347.59;1774577;79;21037;-76
2022/03/06 06:19:16;;;;;;;9.10;7.45;;;;;;;5.89;56.12;102349.83;1764306;79;21058;-76
2022/03/06 06:21:43;;;;;;;9.23;7.15;;;;;;;6.17;55.65;102341.42;1773377;79;21018;-76
2022/03/06 06:24:14;;;;;;;9.00;6.80;;;;;;;6.47;54.95;102347.22;1772955;77;21538;-76
2022/03/06 06:26:45;;;;;;;8.28;7.37;;;;;;;6.76;54.25;102348.23;1765587;80;20994;-76
2022/03/06 06:29:12;;;;;;;7.62;6.30;;;;;;;6.99;53.35;102348.20;1773504;79;20998;-77
2022/03/06 06:31:40;;;;;;;8.78;6.72;;;;;;;7.17;53.18;102348.56;1767858;80;21018;-77
2022/03/06 06:34:08;;;;;;;7.35;6.62;;;;;;;7.39;52.54;102349.36;1775204;77;21148;-77
2022/03/06 06:36:35;;;;;;;9.93;6.60;;;;;;;7.53;51.69;102346.56;1776334;79;21022;-76
2022/03/06 06:39:03;;;;;;;7.00;6.30;;;;;;;7.62;51.47;102346.73;1765935;79;21011;-77
2022/03/06 06:41:30;;;;;;;11.55;9.45;;;;;;;7.70;51.16;102341.23;1780305;79;21081;-78
2022/03/06 06:43:57;;;;;;;9.55;7.12;;;;;;;7.83;50.86;102346.18;1774845;80;20995;-78
2022/03/06 06:46:24;;;;;;;7.72;6.80;;;;;;;8.00;50.48;102344.26;1769070;80;21494;-78
2022/03/06 06:48:51;;;;;;;7.22;6.53;;;;;;;8.15;50.15;102347.07;1771177;80;21030;-78
2022/03/06 06:51:19;;;;;;;7.20;5.85;;;;;;;8.31;50.02;102340.38;1767882;80;21106;-77
2022/03/06 06:53:45;;;;;;;9.25;6.50;;;;;;;8.48;48.62;102340.59;1758101;80;21081;-77
2022/03/06 06:56:12;;;;;;;6.85;6.08;;;;;;;8.54;48.58;102340.66;1775587;79;21018;-77
2022/03/06 06:58:39;;;;;;;6.42;5.58;;;;;;;8.65;48.28;102339.95;1767302;79;20985;-77
2022/03/06 07:01:08;;;;;;;6.58;5.53;;;;;;;8.75;48.16;102346.98;1774107;79;21076;-77
2022/03/06 07:03:35;;;;;;;7.87;6.10;;;;;;;8.87;47.62;102341.03;1773011;79;21026;-77
2022/03/06 07:06:02;;;;;;;8.10;5.97;;;;;;;8.99;47.12;102346.34;1771951;78;20971;-77
2022/03/06 07:08:30;;;;;;;6.97;5.75;;;;;;;9.00;46.57;102336.42;1770750;79;21028;-77
2022/03/06 07:10:57;;;;;;;6.65;5.95;;;;;;;8.97;46.70;102342.87;1755537;79;21047;-77
2022/03/06 07:13:25;;;;;;;7.17;5.95;;;;;;;8.99;46.73;102341.16;1785248;79;21071;-77
2022/03/06 07:15:52;;;;;;;6.12;5.53;;;;;;;9.01;46.63;102339.02;1770204;79;21011;-78
2022/03/06 07:18:19;;;;;;;5.83;5.05;;;;;;;9.00;46.13;102336.42;1779900;79;20960;-77
2022/03/06 07:20:47;;;;;;;7.00;5.65;;;;;;;8.90;45.75;102338.48;1789836;79;21046;-77
2022/03/06 07:23:15;;;;;;;8.73;6.30;;;;;;;8.77;45.97;102334.01;1770636;79;21016;-77
2022/03/06 07:25:43;;;;;;;6.92;5.92;;;;;;;8.65;46.50;102336.06;1776939;79;21554;-77
2022/03/06 07:28:09;;;;;;;7.70;5.72;;;;;;;8.56;46.12;102336.36;1777751;79;21477;-77
2022/03/06 07:30:37;;;;;;;7.37;6.33;;;;;;;8.41;46.53;102334.45;1773616;79;21519;-77
2022/03/06 07:33:04;;;;;;;7.70;5.75;;;;;;;8.29;46.58;102343.80;1774487;79;21041;-76
2022/03/06 07:35:33;;;;;;;9.38;7.00;;;;;;;8.15;47.00;102343.60;1778713;79;21057;-77
2022/03/06 07:38:00;;;;;;;9.73;7.10;;;;;;;8.07;47.55;102342.21;1794131;79;21507;-77
2022/03/06 07:40:28;;;;;;;8.98;7.53;;;;;;;8.02;47.99;102341.27;1766485;78;21033;-77
2022/03/06 07:42:56;;;;;;;6.85;6.15;;;;;;;7.95;48.22;102343.34;1782309;79;21050;-76
2022/03/06 07:45:23;;;;;;;8.20;7.37;;;;;;;7.89;48.37;102345.81;1773500;79;20996;-76
2022/03/06 07:47:52;;;;;;;8.75;6.83;;;;;;;7.84;48.48;102350.08;1776987;79;21038;-77
2022/03/06 07:50:19;;;;;;;6.92;6.05;;;;;;;7.82;48.45;102352.20;1798606;79;21038;-76
2022/03/06 07:52:46;;;;;;;8.68;7.22;;;;;;;7.80;48.36;102352.18;1774138;79;21526;-77
2022/03/06 07:55:13;;;;;;;6.72;6.00;;;;;;;7.84;48.39;102357.86;1789696;79;21081;-77
2022/03/06 07:57:40;;;;;;;7.08;6.30;;;;;;;7.87;48.03;102353.99;1795112;78;20999;-77
2022/03/06 08:00:10;;;;;;;6.60;5.97;;;;;;;7.90;48.22;102350.58;1780069;79;21061;-76
2022/03/06 08:02:39;;;;;;;7.55;6.25;;;;;;;7.94;47.84;102349.36;1779937;79;21006;-77
2022/03/06 08:05:07;;;;;;;7.83;6.53;;;;;;;7.96;47.53;102354.56;1670882;84;21042;-76
2022/03/06 08:07:35;;;;;;;7.50;6.40;;;;;;;7.96;47.52;102355.44;1689253;83;21041;-76
2022/03/06 08:10:06;;;;;;;7.75;6.33;;;;;;;7.94;47.44;102346.77;1649483;84;21021;-75
2022/03/06 08:12:33;;;;;;;6.85;6.03;;;;;;;7.90;47.53;102344.98;1677440;83;21025;-76
2022/03/06 08:15:01;;;;;;;7.20;6.17;;;;;;;7.87;47.38;102351.85;1651067;84;21182;-76
2022/03/06 08:17:28;;;;;;;8.68;6.37;;;;;;;7.85;47.85;102356.98;1683117;84;21058;-77
2022/03/06 08:19:55;;;;;;;6.37;5.55;;;;;;;7.88;48.17;102354.88;1685077;84;21037;-77
2022/03/06 08:22:23;;;;;;;6.45;5.83;;;;;;;7.94;48.07;102346.77;1664173;84;21036;-77
2022/03/06 08:24:50;;;;;;;5.80;5.15;;;;;;;8.02;47.83;102352.93;1683292;84;21124;-76
2022/03/06 08:27:35;;;;;;;6.25;4.78;;;;;;;8.07;47.10;102343.51;1685864;84;21133;-75
2022/03/06 08:30:05;;;;;;;6.25;4.90;;;;;;;8.12;46.91;102344.42;1663873;84;21142;-76
2022/03/06 08:32:33;;;;;;;6.50;5.25;;;;;;;8.16;46.60;102346.20;1676071;84;21591;-76
2022/03/06 08:35:02;;;;;;;7.25;5.30;;;;;;;8.20;46.57;102347.14;1656580;84;21068;-77
2022/03/06 08:37:29;;;;;;;6.53;5.42;;;;;;;8.19;45.39;102344.08;1656953;84;21541;-76
2022/03/06 08:39:56;;;;;;;6.17;5.50;;;;;;;8.18;45.83;102343.66;1660063;84;21033;-77
2022/03/06 08:42:24;;;;;;;5.90;5.15;;;;;;;8.17;45.65;102338.89;1671307;84;21120;-76
2022/03/06 08:44:51;;;;;;;6.12;5.53;;;;;;;8.21;45.66;102344.55;1670737;84;21123;-76
2022/03/06 08:47:18;;;;;;;6.50;5.83;;;;;;;8.24;45.57;102352.36;1686250;84;21037;-77
2022/03/06 08:49:46;;;;;;;6.65;5.95;;;;;;;8.27;46.00;102345.50;1673219;84;21583;-76
2022/03/06 08:52:13;;;;;;;6.20;5.33;;;;;;;8.32;46.30;102343.86;1683675;84;21611;-76
2022/03/06 08:54:40;;;;;;;7.97;4.72;;;;;;;8.35;45.98;102345.17;1676156;83;21109;-77
2022/03/06 08:57:07;;;;;;;5.10;4.60;;;;;;;8.38;45.75;102348.70;1672290;84;21107;-76
2022/03/06 08:59:34;;;;;;;5.40;4.53;;;;;;;8.37;45.08;102344.77;1684164;84;21006;-77
2022/03/06 09:02:03;;;;;;;7.33;5.40;;;;;;;8.36;45.67;102345.63;1707447;81;20999;-76
2022/03/06 09:04:33;;;;;;;7.40;5.03;;;;;;;8.35;45.88;102346.05;1779724;79;21044;-76
2022/03/06 09:07:00;;;;;;;6.15;5.55;;;;;;;8.39;45.88;102349.13;1783866;79;21042;-76
2022/03/06 09:09:27;;;;;;;6.15;5.00;;;;;;;8.42;45.80;102343.11;1780610;79;21003;-77
2022/03/06 09:11:54;;;;;;;5.58;5.00;;;;;;;8.45;45.90;102346.60;1775637;79;21011;-77
2022/03/06 09:14:21;;;;;;;4.83;4.30;;;;;;;8.47;45.30;102346.65;1780154;79;21022;-77
2022/03/06 09:16:47;;;;;;;5.28;4.78;;;;;;;8.51;44.92;102340.64;1784057;79;21052;-77
2022/03/06 09:19:15;;;;;;;6.08;5.30;;;;;;;8.52;45.29;102332.87;1795650;79;20998;-77
2022/03/06 09:21:43;;;;;;;5.10;4.60;;;;;;;8.56;44.86;102333.34;1786844;79;20968;-76
2022/03/06 09:24:11;;;;;;;5.58;4.87;;;;;;;8.57;44.91;102329.03;1773095;80;20972;-77
2022/03/06 09:26:38;;;;;;;5.25;4.50;;;;;;;8.66;44.96;102335.61;1770634;80;21550;-77
2022/03/06 09:29:05;;;;;;;6.22;4.60;;;;;;;8.72;44.42;102341.74;1775176;80;21538;-76
2022/03/06 09:31:32;;;;;;;5.37;4.87;;;;;;;8.75;44.41;102340.91;1771402;80;21513;-77
2022/03/06 09:34:00;;;;;;;5.97;5.03;;;;;;;8.79;44.34;102343.56;1769199;80;21035;-77
2022/03/06 09:36:27;;;;;;;9.33;5.55;;;;;;;8.82;44.43;102342.73;1767860;80;21526;-76
2022/03/06 09:38:54;;;;;;;6.08;4.67;;;;;;;8.85;44.51;102342.75;1767520;80;21569;-77
2022/03/06 09:41:25;;;;;;;6.37;5.70;;;;;;;8.88;44.51;102342.80;1768268;79;21011;-76
2022/03/06 09:43:56;;;;;;;6.25;4.67;;;;;;;8.88;44.51;102342.34;1772923;79;21011;-76
2022/03/06 09:46:24;;;;;;;6.08;5.28;;;;;;;8.90;44.63;102341.09;1776494;79;21044;-77
2022/03/06 09:48:51;;;;;;;6.22;5.62;;;;;;;8.93;44.74;102343.69;1767962;80;21053;-76
2022/03/06 09:51:18;;;;;;;9.75;5.78;;;;;;;9.00;45.01;102342.91;1765270;80;21005;-76
2022/03/06 09:53:46;;;;;;;6.30;5.45;;;;;;;9.04;44.62;102339.48;1769081;79;21501;-76
2022/03/06 09:56:13;;;;;;;5.83;5.08;;;;;;;9.05;44.42;102341.22;1780639;79;21579;-77
2022/03/06 09:58:40;;;;;;;6.17;5.58;;;;;;;9.09;44.59;102337.78;1787201;79;21057;-76
2022/03/06 10:01:07;;;;;;;6.90;5.97;;;;;;;9.17;44.55;102332.23;1780064;79;21041;-77
2022/03/06 10:03:37;;;;;;;6.03;5.35;;;;;;;9.22;44.60;102334.87;1790419;79;21027;-78
2022/03/06 10:06:05;;;;;;;4.70;4.20;;;;;;;9.26;44.78;102334.05;1771417;78;21125;-76
2022/03/06 10:08:34;;;;;;;5.25;4.55;;;;;;;9.32;44.23;102328.48;1787797;79;20999;-76
2022/03/06 10:11:10;;;;;;;5.00;4.50;;;;;;;9.38;44.03;102331.13;1788290;79;20990;-76
2022/03/06 10:13:45;;;;;;;5.65;4.87;;;;;;;9.44;44.13;102328.58;1761406;80;21071;-77
2022/03/06 10:16:20;;;;;;;4.83;4.30;;;;;;;9.50;44.01;102333.81;1760082;79;21515;-78
2022/03/06 10:18:50;;;;;;;4.83;4.25;;;;;;;9.56;44.21;102326.06;1772553;79;21005;-78
2022/03/06 10:21:30;;;;;;;;;;;;;;;9.65;43.87;102335.23;1781967;79;21085;-77
2022/03/06 10:24:00;;;;;;;4.50;4.10;;;;;;;9.72;43.74;102329.23;1773273;79;20083;-77
2022/03/06 10:26:30;;;;;;;4.67;3.73;;;;;;;9.77;42.84;102326.22;1707489;83;21073;-78
2022/03/06 10:29:03;;;;;;;3.87;3.10;;;;;;;9.81;42.43;102333.59;1712960;83;21503;-78
2022/03/06 10:31:34;;;;;;;4.15;3.58;;;;;;;9.83;41.72;102329.28;1713825;83;21097;-77
2022/03/06 10:34:09;;;;;;;5.03;3.42;;;;;;;9.85;41.96;102323.23;1707541;83;21116;-76
2022/03/06 10:36:44;;;;;;;4.65;3.25;;;;;;;9.85;41.41;102321.05;1687076;83;21173;-77
2022/03/06 10:39:18;;;;;;;3.98;3.30;;;;;;;9.82;41.60;102316.73;1701531;82;21074;-78
2022/03/06 10:41:55;;;;;;;4.03;3.00;;;;;;;9.82;41.65;102320.63;1666843;85;21486;-77
2022/03/06 10:44:46;;;;;;;3.85;3.33;;;;;;;9.83;41.20;102319.76;1650528;86;21196;-78
2022/03/06 10:47:13;;;;;;;4.45;3.65;;;;;;;9.85;41.33;102317.16;1640152;86;21061;-76
2022/03/06 10:49:40;;;;;;;4.10;3.65;;;;;;;9.87;41.69;102305.03;1641607;87;20991;-77
2022/03/06 10:52:16;;;;;;;5.30;4.10;;;;;;;9.89;41.51;102306.37;1641632;86;21101;-77
2022/03/06 10:54:52;;;;;;;3.40;3.10;;;;;;;9.91;41.23;102305.52;1643841;86;21116;-77
2022/03/06 10:57:20;;;;;;;4.40;3.30;;;;;;;9.94;41.10;102307.24;1580277;90;21086;-77
2022/03/06 10:59:49;;;;;;;4.28;3.25;;;;;;;9.95;40.79;102306.41;1583438;89;21093;-77
2022/03/06 11:02:16;;;;;;;3.42;2.92;;;;;;;9.96;40.22;102308.13;1575306;89;21067;-77
2022/03/06 11:04:46;;;;;;;4.50;3.42;;;;;;;9.98;40.02;102296.00;1578127;90;21063;-77
2022/03/06 11:07:14;;;;;;;3.52;2.87;;;;;;;9.99;40.43;102297.75;1564670;89;21058;-77
2022/03/06 11:09:41;;;;;;;3.25;2.75;;;;;;;9.98;40.14;102296.88;1578218;89;21097;-77
2022/03/06 11:12:08;;;;;;;4.50;3.20;;;;;;;9.96;39.77;102295.13;1569330;89;21043;-77
2022/03/06 11:14:36;;;;;;;4.17;2.83;;;;;;;9.94;40.26;102300.75;1589878;89;21136;-77
2022/03/06 11:17:03;;;;;;;5.58;2.77;;;;;;;9.96;40.36;102296.00;1572408;89;21109;-77
2022/03/06 11:19:33;;;;;;;4.03;2.87;;;;;;;9.98;39.79;102288.20;1620111;86;21144;-77
2022/03/06 11:22:11;;;;;;;3.30;2.60;;;;;;;10.02;38.94;102295.15;1604614;88;21014;-76
2022/03/06 11:24:38;;;;;;;3.30;2.92;;;;;;;10.06;39.50;102288.67;1537178;92;21439;-77
2022/03/06 11:27:33;;;;;;;2.65;2.30;;;;;;;10.12;38.84;102290.04;1524290;92;21193;-78
2022/03/06 11:30:20;;;;;;;2.20;2.00;;;;;;;10.15;38.52;102286.59;1537556;90;21066;-77
2022/03/06 11:33:06;;;;;;;2.52;2.33;;;;;;;10.18;37.61;102282.71;1560251;91;21073;-77
2022/03/06 11:35:38;;;;;;;2.87;2.58;;;;;;;10.20;37.54;102283.59;1583500;89;21140;-77
2022/03/06 11:38:06;;;;;;;4.58;2.20;;;;;;;10.23;37.17;102274.48;1610133;87;21546;-76